sensor_id;sensor_type;location;lat;lon;timestamp;P1;durP1;ratioP1;P2;durP2;ratioP2
11681;SDS011;5897;42.640;23.310;2022-07-30T00:02:24;4.82;;;4.43;;
11681;SDS011;5897;42.640;23.310;2022-07-30T00:04:52;4.50;;;4.10;;
11681;SDS011;5897;42.640;23.310;2022-07-30T00:07:19;3.95;;;3.63;;
11681;SDS011;5897;42.640;23.310;2022-07-30T00:09:46;3.92;;;3.25;;
11681;SDS011;5897;42.640;23.310;2022-07-30T00:12:12;3.30;;;3.00;;
11681;SDS011;5897;42.640;23.310;2022-07-30T00:14:39;3.72;;;3.33;;
11681;SDS011;5897;42.640;23.310;2022-07-30T00:17:06;2.78;;;2.55;;
11681;SDS011;5897;42.640;23.310;2022-07-30T00:19:33;4.32;;;3.90;;
11681;SDS011;5897;42.640;23.310;2022-07-30T00:22:01;4.88;;;4.15;;
11681;SDS011;5897;42.640;23.310;2022-07-30T00:24:28;5.38;;;4.30;;
11681;SDS011;5897;42.640;23.310;2022-07-30T00:26:55;5.18;;;3.80;;
11681;SDS011;5897;42.640;23.310;2022-07-30T00:29:21;3.85;;;3.40;;
11681;SDS011;5897;42.640;23.310;2022-07-30T00:31:49;4.38;;;3.30;;
11681;SDS011;5897;42.640;23.310;2022-07-30T00:34:16;3.97;;;3.13;;
11681;SDS011;5897;42.640;23.310;2022-07-30T00:36:43;4.10;;;3.47;;
11681;SDS011;5897;42.640;23.310;2022-07-30T00:39:11;3.55;;;3.25;;
11681;SDS011;5897;42.640;23.310;2022-07-30T00:41:51;4.30;;;4.00;;
11681;SDS011;5897;42.640;23.310;2022-07-30T00:44:19;5.18;;;4.68;;
11681;SDS011;5897;42.640;23.310;2022-07-30T00:46:45;4.50;;;4.10;;
11681;SDS011;5897;42.640;23.310;2022-07-30T00:49:12;5.32;;;4.72;;
11681;SDS011;5897;42.640;23.310;2022-07-30T00:51:39;6.40;;;4.03;;
11681;SDS011;5897;42.640;23.310;2022-07-30T00:54:06;4.50;;;3.90;;
11681;SDS011;5897;42.640;23.310;2022-07-30T00:56:34;4.65;;;4.20;;
11681;SDS011;5897;42.640;23.310;2022-07-30T00:59:00;4.30;;;3.90;;
11681;SDS011;5897;42.640;23.310;2022-07-30T01:01:27;3.60;;;3.30;;
11681;SDS011;5897;42.640;23.310;2022-07-30T01:03:56;3.40;;;3.10;;
11681;SDS011;5897;42.640;23.310;2022-07-30T01:06:23;3.95;;;3.65;;
11681;SDS011;5897;42.640;23.310;2022-07-30T01:08:50;5.20;;;4.28;;
11681;SDS011;5897;42.640;23.310;2022-07-30T01:11:18;4.57;;;4.07;;
11681;SDS011;5897;42.640;23.310;2022-07-30T01:13:46;5.35;;;4.60;;
11681;SDS011;5897;42.640;23.310;2022-07-30T01:16:13;5.43;;;4.35;;
11681;SDS011;5897;42.640;23.310;2022-07-30T01:18:41;5.07;;;4.68;;
11681;SDS011;5897;42.640;23.310;2022-07-30T01:21:30;4.88;;;4.50;;
11681;SDS011;5897;42.640;23.310;2022-07-30T01:24:06;6.55;;;5.00;;
11681;SDS011;5897;42.640;23.310;2022-07-30T01:26:45;5.07;;;4.57;;
11681;SDS011;5897;42.640;23.310;2022-07-30T01:29:14;5.47;;;4.78;;
11681;SDS011;5897;42.640;23.310;2022-07-30T01:31:42;5.60;;;4.97;;
11681;SDS011;5897;42.640;23.310;2022-07-30T01:34:10;5.43;;;4.93;;
11681;SDS011;5897;42.640;23.310;2022-07-30T01:36:39;5.68;;;5.00;;
11681;SDS011;5897;42.640;23.310;2022-07-30T01:39:07;5.75;;;5.20;;
11681;SDS011;5897;42.640;23.310;2022-07-30T01:41:35;6.43;;;5.70;;
11681;SDS011;5897;42.640;23.310;2022-07-30T01:44:04;5.60;;;5.10;;
11681;SDS011;5897;42.640;23.310;2022-07-30T01:46:32;6.30;;;5.07;;
11681;SDS011;5897;42.640;23.310;2022-07-30T01:48:59;7.53;;;5.10;;
11681;SDS011;5897;42.640;23.310;2022-07-30T01:51:27;6.60;;;5.03;;
11681;SDS011;5897;42.640;23.310;2022-07-30T01:53:56;7.00;;;4.72;;
11681;SDS011;5897;42.640;23.310;2022-07-30T01:56:24;5.43;;;4.93;;
11681;SDS011;5897;42.640;23.310;2022-07-30T01:58:51;6.80;;;5.45;;
11681;SDS011;5897;42.640;23.310;2022-07-30T02:01:22;5.63;;;5.13;;
11681;SDS011;5897;42.640;23.310;2022-07-30T02:03:49;5.72;;;5.05;;
11681;SDS011;5897;42.640;23.310;2022-07-30T02:06:16;5.78;;;5.28;;
11681;SDS011;5897;42.640;23.310;2022-07-30T02:08:47;6.25;;;5.50;;
11681;SDS011;5897;42.640;23.310;2022-07-30T02:11:19;5.63;;;5.13;;
11681;SDS011;5897;42.640;23.310;2022-07-30T02:14:00;6.05;;;5.45;;
11681;SDS011;5897;42.640;23.310;2022-07-30T02:16:34;6.93;;;5.47;;
11681;SDS011;5897;42.640;23.310;2022-07-30T02:19:04;5.30;;;4.90;;
11681;SDS011;5897;42.640;23.310;2022-07-30T02:21:36;7.15;;;5.28;;
11681;SDS011;5897;42.640;23.310;2022-07-30T02:24:07;6.20;;;5.20;;
11681;SDS011;5897;42.640;23.310;2022-07-30T02:26:38;6.15;;;5.55;;
11681;SDS011;5897;42.640;23.310;2022-07-30T02:29:07;6.03;;;5.50;;
11681;SDS011;5897;42.640;23.310;2022-07-30T02:31:36;5.65;;;5.15;;
11681;SDS011;5897;42.640;23.310;2022-07-30T02:34:05;6.85;;;5.63;;
11681;SDS011;5897;42.640;23.310;2022-07-30T02:36:34;6.47;;;5.45;;
11681;SDS011;5897;42.640;23.310;2022-07-30T02:39:02;5.70;;;5.13;;
11681;SDS011;5897;42.640;23.310;2022-07-30T02:41:30;5.95;;;5.35;;
11681;SDS011;5897;42.640;23.310;2022-07-30T02:43:58;6.35;;;5.85;;
11681;SDS011;5897;42.640;23.310;2022-07-30T02:46:26;6.40;;;5.80;;
11681;SDS011;5897;42.640;23.310;2022-07-30T02:48:55;5.63;;;5.22;;
11681;SDS011;5897;42.640;23.310;2022-07-30T02:51:22;6.28;;;5.68;;
11681;SDS011;5897;42.640;23.310;2022-07-30T02:53:51;6.22;;;5.50;;
11681;SDS011;5897;42.640;23.310;2022-07-30T02:56:20;6.35;;;5.75;;
11681;SDS011;5897;42.640;23.310;2022-07-30T02:58:48;6.60;;;5.90;;
11681;SDS011;5897;42.640;23.310;2022-07-30T03:01:17;5.97;;;5.43;;
11681;SDS011;5897;42.640;23.310;2022-07-30T03:03:46;8.00;;;5.78;;
11681;SDS011;5897;42.640;23.310;2022-07-30T03:06:15;7.72;;;5.85;;
11681;SDS011;5897;42.640;23.310;2022-07-30T03:08:44;6.55;;;5.88;;
11681;SDS011;5897;42.640;23.310;2022-07-30T03:11:12;5.75;;;5.25;;
11681;SDS011;5897;42.640;23.310;2022-07-30T03:13:41;7.95;;;6.15;;
11681;SDS011;5897;42.640;23.310;2022-07-30T03:16:08;6.35;;;5.70;;
11681;SDS011;5897;42.640;23.310;2022-07-30T03:18:36;6.07;;;5.40;;
11681;SDS011;5897;42.640;23.310;2022-07-30T03:21:06;6.80;;;5.80;;
11681;SDS011;5897;42.640;23.310;2022-07-30T03:23:36;7.35;;;5.88;;
11681;SDS011;5897;42.640;23.310;2022-07-30T03:26:05;6.00;;;5.50;;
11681;SDS011;5897;42.640;23.310;2022-07-30T03:28:35;7.55;;;5.55;;
11681;SDS011;5897;42.640;23.310;2022-07-30T03:31:04;6.97;;;6.03;;
11681;SDS011;5897;42.640;23.310;2022-07-30T03:33:31;6.47;;;5.63;;
11681;SDS011;5897;42.640;23.310;2022-07-30T03:36:00;6.40;;;5.88;;
11681;SDS011;5897;42.640;23.310;2022-07-30T03:38:28;7.30;;;5.70;;
11681;SDS011;5897;42.640;23.310;2022-07-30T03:40:57;6.28;;;5.07;;
11681;SDS011;5897;42.640;23.310;2022-07-30T03:43:24;6.10;;;5.60;;
11681;SDS011;5897;42.640;23.310;2022-07-30T03:45:51;9.30;;;6.10;;
11681;SDS011;5897;42.640;23.310;2022-07-30T03:48:19;6.30;;;5.80;;
11681;SDS011;5897;42.640;23.310;2022-07-30T03:50:47;5.80;;;5.30;;
11681;SDS011;5897;42.640;23.310;2022-07-30T03:53:15;6.72;;;5.90;;
11681;SDS011;5897;42.640;23.310;2022-07-30T03:55:44;7.63;;;5.47;;
11681;SDS011;5897;42.640;23.310;2022-07-30T03:58:12;6.57;;;5.90;;
11681;SDS011;5897;42.640;23.310;2022-07-30T04:00:40;8.23;;;6.13;;
11681;SDS011;5897;42.640;23.310;2022-07-30T04:03:07;7.18;;;5.72;;
11681;SDS011;5897;42.640;23.310;2022-07-30T04:05:34;6.45;;;5.40;;
11681;SDS011;5897;42.640;23.310;2022-07-30T04:08:01;5.65;;;5.10;;
11681;SDS011;5897;42.640;23.310;2022-07-30T04:10:27;6.88;;;5.68;;
11681;SDS011;5897;42.640;23.310;2022-07-30T04:12:54;6.05;;;5.45;;
11681;SDS011;5897;42.640;23.310;2022-07-30T04:15:23;7.40;;;5.72;;
11681;SDS011;5897;42.640;23.310;2022-07-30T04:17:50;6.40;;;5.53;;
11681;SDS011;5897;42.640;23.310;2022-07-30T04:20:22;5.40;;;4.90;;
11681;SDS011;5897;42.640;23.310;2022-07-30T04:22:52;5.93;;;5.38;;
11681;SDS011;5897;42.640;23.310;2022-07-30T04:25:20;6.15;;;5.30;;
11681;SDS011;5897;42.640;23.310;2022-07-30T04:27:47;6.20;;;5.70;;
11681;SDS011;5897;42.640;23.310;2022-07-30T04:30:15;6.18;;;5.53;;
11681;SDS011;5897;42.640;23.310;2022-07-30T04:32:43;5.57;;;5.13;;
11681;SDS011;5897;42.640;23.310;2022-07-30T04:35:10;6.60;;;5.70;;
11681;SDS011;5897;42.640;23.310;2022-07-30T04:37:37;5.85;;;5.25;;
11681;SDS011;5897;42.640;23.310;2022-07-30T04:40:04;5.97;;;5.40;;
11681;SDS011;5897;42.640;23.310;2022-07-30T04:42:32;6.32;;;5.10;;
11681;SDS011;5897;42.640;23.310;2022-07-30T04:44:59;5.50;;;5.00;;
11681;SDS011;5897;42.640;23.310;2022-07-30T04:47:26;6.80;;;5.05;;
11681;SDS011;5897;42.640;23.310;2022-07-30T04:49:54;5.85;;;5.22;;
11681;SDS011;5897;42.640;23.310;2022-07-30T04:52:22;5.63;;;5.03;;
11681;SDS011;5897;42.640;23.310;2022-07-30T04:54:50;5.07;;;4.68;;
11681;SDS011;5897;42.640;23.310;2022-07-30T04:57:21;7.20;;;5.13;;
11681;SDS011;5897;42.640;23.310;2022-07-30T04:59:49;6.07;;;4.88;;
11681;SDS011;5897;42.640;23.310;2022-07-30T05:02:16;6.40;;;5.00;;
11681;SDS011;5897;42.640;23.310;2022-07-30T05:04:46;6.70;;;4.57;;
11681;SDS011;5897;42.640;23.310;2022-07-30T05:07:15;6.88;;;4.63;;
11681;SDS011;5897;42.640;23.310;2022-07-30T05:09:44;6.38;;;4.35;;
11681;SDS011;5897;42.640;23.310;2022-07-30T05:12:11;5.90;;;4.78;;
11681;SDS011;5897;42.640;23.310;2022-07-30T05:14:37;6.70;;;4.90;;
11681;SDS011;5897;42.640;23.310;2022-07-30T05:17:04;7.43;;;4.70;;
11681;SDS011;5897;42.640;23.310;2022-07-30T05:19:31;8.35;;;5.32;;
11681;SDS011;5897;42.640;23.310;2022-07-30T05:21:58;5.13;;;4.30;;
11681;SDS011;5897;42.640;23.310;2022-07-30T05:24:26;5.63;;;4.40;;
11681;SDS011;5897;42.640;23.310;2022-07-30T05:26:53;5.90;;;4.75;;
11681;SDS011;5897;42.640;23.310;2022-07-30T05:29:20;5.80;;;4.80;;
11681;SDS011;5897;42.640;23.310;2022-07-30T05:31:47;7.45;;;4.90;;
11681;SDS011;5897;42.640;23.310;2022-07-30T05:34:13;6.78;;;5.20;;
11681;SDS011;5897;42.640;23.310;2022-07-30T05:36:40;6.78;;;4.35;;
11681;SDS011;5897;42.640;23.310;2022-07-30T05:39:08;6.75;;;4.40;;
11681;SDS011;5897;42.640;23.310;2022-07-30T05:41:36;5.25;;;4.38;;
11681;SDS011;5897;42.640;23.310;2022-07-30T05:44:03;6.07;;;4.60;;
11681;SDS011;5897;42.640;23.310;2022-07-30T05:46:30;6.90;;;4.35;;
11681;SDS011;5897;42.640;23.310;2022-07-30T05:48:57;5.15;;;4.13;;
11681;SDS011;5897;42.640;23.310;2022-07-30T05:51:23;5.75;;;4.50;;
11681;SDS011;5897;42.640;23.310;2022-07-30T05:53:50;5.18;;;4.00;;
11681;SDS011;5897;42.640;23.310;2022-07-30T05:56:17;5.32;;;4.28;;
11681;SDS011;5897;42.640;23.310;2022-07-30T05:58:45;5.00;;;3.92;;
11681;SDS011;5897;42.640;23.310;2022-07-30T06:01:12;7.28;;;4.35;;
11681;SDS011;5897;42.640;23.310;2022-07-30T06:03:38;5.28;;;3.92;;
11681;SDS011;5897;42.640;23.310;2022-07-30T06:06:06;4.88;;;4.15;;
11681;SDS011;5897;42.640;23.310;2022-07-30T06:08:33;9.07;;;5.22;;
11681;SDS011;5897;42.640;23.310;2022-07-30T06:11:00;4.53;;;4.10;;
11681;SDS011;5897;42.640;23.310;2022-07-30T06:13:27;4.78;;;4.30;;
11681;SDS011;5897;42.640;23.310;2022-07-30T06:15:55;5.03;;;4.30;;
11681;SDS011;5897;42.640;23.310;2022-07-30T06:18:22;10.55;;;4.60;;
11681;SDS011;5897;42.640;23.310;2022-07-30T06:20:49;5.90;;;4.00;;
11681;SDS011;5897;42.640;23.310;2022-07-30T06:23:16;8.73;;;4.43;;
11681;SDS011;5897;42.640;23.310;2022-07-30T06:25:42;6.28;;;4.40;;
11681;SDS011;5897;42.640;23.310;2022-07-30T06:28:09;4.57;;;3.90;;
11681;SDS011;5897;42.640;23.310;2022-07-30T06:30:37;5.10;;;3.50;;
11681;SDS011;5897;42.640;23.310;2022-07-30T06:33:06;6.03;;;3.42;;
11681;SDS011;5897;42.640;23.310;2022-07-30T06:35:33;3.88;;;3.50;;
11681;SDS011;5897;42.640;23.310;2022-07-30T06:37:59;4.57;;;4.18;;
11681;SDS011;5897;42.640;23.310;2022-07-30T06:40:26;4.20;;;3.80;;
11681;SDS011;5897;42.640;23.310;2022-07-30T06:42:53;6.07;;;3.80;;
11681;SDS011;5897;42.640;23.310;2022-07-30T06:45:20;6.60;;;4.00;;
11681;SDS011;5897;42.640;23.310;2022-07-30T06:47:46;4.15;;;3.75;;
11681;SDS011;5897;42.640;23.310;2022-07-30T06:50:14;4.55;;;4.15;;
11681;SDS011;5897;42.640;23.310;2022-07-30T06:52:43;5.88;;;3.58;;
11681;SDS011;5897;42.640;23.310;2022-07-30T06:55:09;6.57;;;4.88;;
11681;SDS011;5897;42.640;23.310;2022-07-30T06:57:36;5.03;;;4.25;;
11681;SDS011;5897;42.640;23.310;2022-07-30T07:00:04;5.15;;;4.30;;
11681;SDS011;5897;42.640;23.310;2022-07-30T07:02:32;6.18;;;3.90;;
11681;SDS011;5897;42.640;23.310;2022-07-30T07:04:59;6.50;;;3.78;;
11681;SDS011;5897;42.640;23.310;2022-07-30T07:07:27;5.68;;;4.32;;
11681;SDS011;5897;42.640;23.310;2022-07-30T07:09:54;6.07;;;3.95;;
11681;SDS011;5897;42.640;23.310;2022-07-30T07:12:20;4.90;;;3.90;;
11681;SDS011;5897;42.640;23.310;2022-07-30T07:14:47;7.43;;;4.32;;
11681;SDS011;5897;42.640;23.310;2022-07-30T07:17:14;7.80;;;4.55;;
11681;SDS011;5897;42.640;23.310;2022-07-30T07:19:40;7.85;;;4.80;;
11681;SDS011;5897;42.640;23.310;2022-07-30T07:22:07;6.63;;;4.07;;
11681;SDS011;5897;42.640;23.310;2022-07-30T07:24:35;6.97;;;4.10;;
11681;SDS011;5897;42.640;23.310;2022-07-30T07:27:02;4.85;;;3.90;;
11681;SDS011;5897;42.640;23.310;2022-07-30T07:29:29;5.38;;;3.58;;
11681;SDS011;5897;42.640;23.310;2022-07-30T07:31:56;4.55;;;3.50;;
11681;SDS011;5897;42.640;23.310;2022-07-30T07:34:23;5.68;;;3.78;;
11681;SDS011;5897;42.640;23.310;2022-07-30T07:36:49;3.92;;;3.58;;
11681;SDS011;5897;42.640;23.310;2022-07-30T07:39:16;4.50;;;4.10;;
11681;SDS011;5897;42.640;23.310;2022-07-30T07:41:44;5.10;;;3.63;;
11681;SDS011;5897;42.640;23.310;2022-07-30T07:44:11;4.50;;;3.90;;
11681;SDS011;5897;42.640;23.310;2022-07-30T07:46:38;5.93;;;4.15;;
11681;SDS011;5897;42.640;23.310;2022-07-30T07:49:04;8.07;;;4.18;;
11681;SDS011;5897;42.640;23.310;2022-07-30T07:51:31;6.55;;;3.97;;
11681;SDS011;5897;42.640;23.310;2022-07-30T07:54:00;4.32;;;3.92;;
11681;SDS011;5897;42.640;23.310;2022-07-30T07:56:26;5.35;;;3.72;;
11681;SDS011;5897;42.640;23.310;2022-07-30T07:58:55;4.38;;;3.50;;
11681;SDS011;5897;42.640;23.310;2022-07-30T08:01:21;3.83;;;3.47;;
11681;SDS011;5897;42.640;23.310;2022-07-30T08:03:48;4.50;;;4.00;;
11681;SDS011;5897;42.640;23.310;2022-07-30T08:06:15;4.88;;;3.72;;
11681;SDS011;5897;42.640;23.310;2022-07-30T08:08:42;4.75;;;3.83;;
11681;SDS011;5897;42.640;23.310;2022-07-30T08:11:09;5.47;;;3.90;;
11681;SDS011;5897;42.640;23.310;2022-07-30T08:13:35;3.85;;;3.53;;
11681;SDS011;5897;42.640;23.310;2022-07-30T08:16:04;4.25;;;3.80;;
11681;SDS011;5897;42.640;23.310;2022-07-30T08:18:32;6.97;;;3.70;;
11681;SDS011;5897;42.640;23.310;2022-07-30T08:20:58;6.80;;;4.10;;
11681;SDS011;5897;42.640;23.310;2022-07-30T08:23:25;5.10;;;4.20;;
11681;SDS011;5897;42.640;23.310;2022-07-30T08:25:52;5.63;;;3.90;;
11681;SDS011;5897;42.640;23.310;2022-07-30T08:28:19;4.20;;;3.80;;
11681;SDS011;5897;42.640;23.310;2022-07-30T08:30:45;4.97;;;3.78;;
11681;SDS011;5897;42.640;23.310;2022-07-30T08:33:15;5.03;;;3.80;;
11681;SDS011;5897;42.640;23.310;2022-07-30T08:35:42;4.82;;;4.25;;
11681;SDS011;5897;42.640;23.310;2022-07-30T08:38:08;4.72;;;3.80;;
11681;SDS011;5897;42.640;23.310;2022-07-30T08:40:35;4.00;;;3.63;;
11681;SDS011;5897;42.640;23.310;2022-07-30T08:43:02;4.13;;;3.63;;
11681;SDS011;5897;42.640;23.310;2022-07-30T08:45:30;5.82;;;3.58;;
11681;SDS011;5897;42.640;23.310;2022-07-30T08:47:57;4.93;;;3.42;;
11681;SDS011;5897;42.640;23.310;2022-07-30T08:50:27;4.25;;;3.67;;
11681;SDS011;5897;42.640;23.310;2022-07-30T08:52:54;4.63;;;3.83;;
11681;SDS011;5897;42.640;23.310;2022-07-30T08:55:21;3.97;;;3.67;;
11681;SDS011;5897;42.640;23.310;2022-07-30T08:57:48;7.75;;;3.55;;
11681;SDS011;5897;42.640;23.310;2022-07-30T09:00:16;4.20;;;3.80;;
11681;SDS011;5897;42.640;23.310;2022-07-30T09:02:44;5.95;;;3.92;;
11681;SDS011;5897;42.640;23.310;2022-07-30T09:05:11;5.88;;;4.28;;
11681;SDS011;5897;42.640;23.310;2022-07-30T09:07:39;4.78;;;3.63;;
11681;SDS011;5897;42.640;23.310;2022-07-30T09:10:08;4.68;;;3.72;;
11681;SDS011;5897;42.640;23.310;2022-07-30T09:12:36;4.35;;;3.95;;
11681;SDS011;5897;42.640;23.310;2022-07-30T09:15:06;6.22;;;4.07;;
11681;SDS011;5897;42.640;23.310;2022-07-30T09:17:48;4.78;;;4.25;;
11681;SDS011;5897;42.640;23.310;2022-07-30T09:20:17;4.32;;;3.92;;
11681;SDS011;5897;42.640;23.310;2022-07-30T09:22:46;4.07;;;3.67;;
11681;SDS011;5897;42.640;23.310;2022-07-30T09:25:14;7.03;;;4.05;;
11681;SDS011;5897;42.640;23.310;2022-07-30T09:27:45;4.10;;;3.67;;
11681;SDS011;5897;42.640;23.310;2022-07-30T09:30:13;6.55;;;3.88;;
11681;SDS011;5897;42.640;23.310;2022-07-30T09:32:45;4.00;;;3.58;;
11681;SDS011;5897;42.640;23.310;2022-07-30T09:35:14;3.92;;;3.53;;
11681;SDS011;5897;42.640;23.310;2022-07-30T09:37:42;4.38;;;3.58;;
11681;SDS011;5897;42.640;23.310;2022-07-30T09:40:15;5.25;;;3.92;;
11681;SDS011;5897;42.640;23.310;2022-07-30T09:42:43;6.00;;;3.75;;
11681;SDS011;5897;42.640;23.310;2022-07-30T09:45:10;4.75;;;3.53;;
11681;SDS011;5897;42.640;23.310;2022-07-30T09:47:40;4.63;;;3.83;;
11681;SDS011;5897;42.640;23.310;2022-07-30T09:50:09;4.82;;;3.97;;
11681;SDS011;5897;42.640;23.310;2022-07-30T09:52:38;4.60;;;3.55;;
11681;SDS011;5897;42.640;23.310;2022-07-30T09:55:06;5.78;;;3.33;;
11681;SDS011;5897;42.640;23.310;2022-07-30T09:57:35;4.10;;;3.30;;
11681;SDS011;5897;42.640;23.310;2022-07-30T10:00:20;5.88;;;3.38;;
11681;SDS011;5897;42.640;23.310;2022-07-30T10:02:49;5.40;;;3.63;;
11681;SDS011;5897;42.640;23.310;2022-07-30T10:05:16;6.25;;;3.60;;
11681;SDS011;5897;42.640;23.310;2022-07-30T10:07:48;6.32;;;3.65;;
11681;SDS011;5897;42.640;23.310;2022-07-30T10:10:16;5.40;;;3.70;;
11681;SDS011;5897;42.640;23.310;2022-07-30T10:12:46;4.57;;;4.18;;
11681;SDS011;5897;42.640;23.310;2022-07-30T10:15:16;4.28;;;3.88;;
11681;SDS011;5897;42.640;23.310;2022-07-30T10:17:44;4.18;;;3.78;;
11681;SDS011;5897;42.640;23.310;2022-07-30T10:20:12;3.97;;;3.67;;
11681;SDS011;5897;42.640;23.310;2022-07-30T10:22:40;4.50;;;4.10;;
11681;SDS011;5897;42.640;23.310;2022-07-30T10:25:08;5.18;;;3.53;;
11681;SDS011;5897;42.640;23.310;2022-07-30T10:27:36;5.60;;;4.70;;
11681;SDS011;5897;42.640;23.310;2022-07-30T10:30:06;4.15;;;3.85;;
11681;SDS011;5897;42.640;23.310;2022-07-30T10:32:33;7.13;;;4.15;;
11681;SDS011;5897;42.640;23.310;2022-07-30T10:35:02;5.28;;;4.20;;
11681;SDS011;5897;42.640;23.310;2022-07-30T10:37:30;4.75;;;4.35;;
11681;SDS011;5897;42.640;23.310;2022-07-30T10:40:00;5.93;;;4.35;;
11681;SDS011;5897;42.640;23.310;2022-07-30T10:42:37;4.88;;;4.30;;
11681;SDS011;5897;42.640;23.310;2022-07-30T10:45:18;5.82;;;4.30;;
11681;SDS011;5897;42.640;23.310;2022-07-30T10:47:47;5.57;;;5.03;;
11681;SDS011;5897;42.640;23.310;2022-07-30T10:50:16;5.53;;;4.72;;
11681;SDS011;5897;42.640;23.310;2022-07-30T10:52:53;5.45;;;4.95;;
11681;SDS011;5897;42.640;23.310;2022-07-30T10:55:22;5.13;;;4.60;;
11681;SDS011;5897;42.640;23.310;2022-07-30T10:57:56;5.20;;;4.70;;
11681;SDS011;5897;42.640;23.310;2022-07-30T11:00:29;4.78;;;4.30;;
11681;SDS011;5897;42.640;23.310;2022-07-30T11:03:15;5.40;;;4.93;;
11681;SDS011;5897;42.640;23.310;2022-07-30T11:05:45;5.53;;;4.30;;
11681;SDS011;5897;42.640;23.310;2022-07-30T11:08:32;4.30;;;4.00;;
11681;SDS011;5897;42.640;23.310;2022-07-30T11:11:01;4.72;;;4.30;;
11681;SDS011;5897;42.640;23.310;2022-07-30T11:16:19;4.63;;;4.22;;
11681;SDS011;5897;42.640;23.310;2022-07-30T11:19:00;6.70;;;4.40;;
11681;SDS011;5897;42.640;23.310;2022-07-30T11:21:29;4.38;;;3.80;;
11681;SDS011;5897;42.640;23.310;2022-07-30T11:23:57;7.07;;;4.00;;
11681;SDS011;5897;42.640;23.310;2022-07-30T11:34:50;4.10;;;3.80;;
11681;SDS011;5897;42.640;23.310;2022-07-30T11:37:19;4.78;;;4.00;;
11681;SDS011;5897;42.640;23.310;2022-07-30T11:42:33;5.05;;;4.57;;
11681;SDS011;5897;42.640;23.310;2022-07-30T11:45:22;4.45;;;4.05;;
11681;SDS011;5897;42.640;23.310;2022-07-30T11:47:55;4.57;;;4.07;;
11681;SDS011;5897;42.640;23.310;2022-07-30T11:50:25;4.22;;;3.90;;
11681;SDS011;5897;42.640;23.310;2022-07-30T11:52:55;5.07;;;4.40;;
11681;SDS011;5897;42.640;23.310;2022-07-30T11:55:24;4.40;;;4.00;;
11681;SDS011;5897;42.640;23.310;2022-07-30T11:57:52;5.68;;;4.10;;
11681;SDS011;5897;42.640;23.310;2022-07-30T12:00:19;4.45;;;4.07;;
11681;SDS011;5897;42.640;23.310;2022-07-30T12:02:47;4.90;;;4.50;;
11681;SDS011;5897;42.640;23.310;2022-07-30T12:05:21;4.82;;;4.40;;
11681;SDS011;5897;42.640;23.310;2022-07-30T12:07:50;6.28;;;4.78;;
11681;SDS011;5897;42.640;23.310;2022-07-30T12:10:17;5.57;;;4.82;;
11681;SDS011;5897;42.640;23.310;2022-07-30T12:12:45;5.38;;;4.93;;
11681;SDS011;5897;42.640;23.310;2022-07-30T12:15:26;5.43;;;4.93;;
11681;SDS011;5897;42.640;23.310;2022-07-30T12:17:55;5.30;;;4.90;;
11681;SDS011;5897;42.640;23.310;2022-07-30T12:20:24;5.00;;;4.40;;
11681;SDS011;5897;42.640;23.310;2022-07-30T12:22:50;6.32;;;4.63;;
11681;SDS011;5897;42.640;23.310;2022-07-30T12:25:17;5.78;;;4.57;;
11681;SDS011;5897;42.640;23.310;2022-07-30T12:27:44;6.25;;;4.68;;
11681;SDS011;5897;42.640;23.310;2022-07-30T12:30:13;4.78;;;4.30;;
11681;SDS011;5897;42.640;23.310;2022-07-30T12:32:40;5.57;;;4.60;;
11681;SDS011;5897;42.640;23.310;2022-07-30T12:35:08;6.03;;;4.50;;
11681;SDS011;5897;42.640;23.310;2022-07-30T12:37:36;5.65;;;4.97;;
11681;SDS011;5897;42.640;23.310;2022-07-30T12:40:04;5.97;;;5.38;;
11681;SDS011;5897;42.640;23.310;2022-07-30T12:42:32;5.70;;;5.20;;
11681;SDS011;5897;42.640;23.310;2022-07-30T12:44:58;5.63;;;5.13;;
11681;SDS011;5897;42.640;23.310;2022-07-30T12:47:26;5.40;;;4.68;;
11681;SDS011;5897;42.640;23.310;2022-07-30T12:49:54;6.72;;;4.97;;
11681;SDS011;5897;42.640;23.310;2022-07-30T12:52:23;5.47;;;5.00;;
11681;SDS011;5897;42.640;23.310;2022-07-30T12:54:59;5.78;;;5.25;;
11681;SDS011;5897;42.640;23.310;2022-07-30T12:57:27;5.40;;;4.90;;
11681;SDS011;5897;42.640;23.310;2022-07-30T13:00:19;5.70;;;5.20;;
11681;SDS011;5897;42.640;23.310;2022-07-30T13:02:46;5.50;;;5.10;;
11681;SDS011;5897;42.640;23.310;2022-07-30T13:05:13;5.32;;;4.90;;
11681;SDS011;5897;42.640;23.310;2022-07-30T13:07:53;5.38;;;4.85;;
11681;SDS011;5897;42.640;23.310;2022-07-30T13:10:20;5.50;;;5.00;;
11681;SDS011;5897;42.640;23.310;2022-07-30T13:12:48;5.85;;;5.35;;
11681;SDS011;5897;42.640;23.310;2022-07-30T13:15:20;6.07;;;5.50;;
11681;SDS011;5897;42.640;23.310;2022-07-30T13:17:47;5.90;;;5.40;;
11681;SDS011;5897;42.640;23.310;2022-07-30T13:20:15;6.00;;;5.47;;
11681;SDS011;5897;42.640;23.310;2022-07-30T13:22:42;6.38;;;5.68;;
11681;SDS011;5897;42.640;23.310;2022-07-30T13:25:10;9.27;;;5.57;;
11681;SDS011;5897;42.640;23.310;2022-07-30T13:27:37;6.10;;;5.40;;
11681;SDS011;5897;42.640;23.310;2022-07-30T13:30:04;5.80;;;5.30;;
11681;SDS011;5897;42.640;23.310;2022-07-30T13:32:33;6.65;;;4.85;;
11681;SDS011;5897;42.640;23.310;2022-07-30T13:35:00;5.75;;;5.30;;
11681;SDS011;5897;42.640;23.310;2022-07-30T13:37:27;5.25;;;4.80;;
11681;SDS011;5897;42.640;23.310;2022-07-30T13:39:53;5.68;;;5.13;;
11681;SDS011;5897;42.640;23.310;2022-07-30T13:42:20;5.95;;;4.88;;
11681;SDS011;5897;42.640;23.310;2022-07-30T13:44:47;5.78;;;5.05;;
11681;SDS011;5897;42.640;23.310;2022-07-30T13:47:15;5.43;;;4.90;;
11681;SDS011;5897;42.640;23.310;2022-07-30T13:49:43;5.47;;;5.00;;
11681;SDS011;5897;42.640;23.310;2022-07-30T13:52:13;5.82;;;5.25;;
11681;SDS011;5897;42.640;23.310;2022-07-30T13:54:40;5.95;;;4.78;;
11681;SDS011;5897;42.640;23.310;2022-07-30T13:57:06;6.63;;;4.80;;
11681;SDS011;5897;42.640;23.310;2022-07-30T13:59:33;6.03;;;5.00;;
11681;SDS011;5897;42.640;23.310;2022-07-30T14:02:00;5.82;;;5.03;;
11681;SDS011;5897;42.640;23.310;2022-07-30T14:04:28;7.07;;;4.72;;
11681;SDS011;5897;42.640;23.310;2022-07-30T14:06:57;5.40;;;4.90;;
11681;SDS011;5897;42.640;23.310;2022-07-30T14:09:24;5.90;;;5.40;;
11681;SDS011;5897;42.640;23.310;2022-07-30T14:11:51;8.18;;;5.60;;
11681;SDS011;5897;42.640;23.310;2022-07-30T14:14:18;5.97;;;5.30;;
11681;SDS011;5897;42.640;23.310;2022-07-30T14:16:46;6.22;;;5.15;;
11681;SDS011;5897;42.640;23.310;2022-07-30T14:19:14;5.50;;;5.05;;
11681;SDS011;5897;42.640;23.310;2022-07-30T14:21:41;5.68;;;5.10;;
11681;SDS011;5897;42.640;23.310;2022-07-30T14:24:09;5.72;;;5.13;;
11681;SDS011;5897;42.640;23.310;2022-07-30T14:26:37;5.75;;;4.72;;
11681;SDS011;5897;42.640;23.310;2022-07-30T14:29:04;5.47;;;4.97;;
11681;SDS011;5897;42.640;23.310;2022-07-30T14:31:31;5.50;;;5.00;;
11681;SDS011;5897;42.640;23.310;2022-07-30T14:33:58;6.78;;;4.82;;
11681;SDS011;5897;42.640;23.310;2022-07-30T14:36:25;5.53;;;5.03;;
11681;SDS011;5897;42.640;23.310;2022-07-30T14:38:54;5.20;;;4.60;;
11681;SDS011;5897;42.640;23.310;2022-07-30T14:41:23;5.18;;;4.65;;
11681;SDS011;5897;42.640;23.310;2022-07-30T14:43:50;7.05;;;4.50;;
11681;SDS011;5897;42.640;23.310;2022-07-30T14:46:17;5.22;;;4.57;;
11681;SDS011;5897;42.640;23.310;2022-07-30T14:48:43;5.28;;;3.95;;
11681;SDS011;5897;42.640;23.310;2022-07-30T14:51:10;4.70;;;4.28;;
11681;SDS011;5897;42.640;23.310;2022-07-30T14:53:38;4.45;;;4.03;;
11681;SDS011;5897;42.640;23.310;2022-07-30T14:56:04;5.45;;;4.65;;
11681;SDS011;5897;42.640;23.310;2022-07-30T14:58:32;4.60;;;4.20;;
11681;SDS011;5897;42.640;23.310;2022-07-30T15:00:59;5.03;;;4.00;;
11681;SDS011;5897;42.640;23.310;2022-07-30T15:03:28;6.32;;;4.18;;
11681;SDS011;5897;42.640;23.310;2022-07-30T15:05:55;4.95;;;4.45;;
11681;SDS011;5897;42.640;23.310;2022-07-30T15:08:21;4.47;;;4.15;;
11681;SDS011;5897;42.640;23.310;2022-07-30T15:10:48;4.68;;;4.28;;